sensor_id;sensor_type;location;lat;lon;timestamp;P1;P2;P0
40371;PMS5003;28564;53.346;-6.554;2023-10-13T00:02:16;2;2;
40371;PMS5003;28564;53.346;-6.554;2023-10-13T00:04:43;2;2;
40371;PMS5003;28564;53.346;-6.554;2023-10-13T00:07:10;2;2;
40371;PMS5003;28564;53.346;-6.554;2023-10-13T00:09:37;4;2;
40371;PMS5003;28564;53.346;-6.554;2023-10-13T00:12:05;3;2;
40371;PMS5003;28564;53.346;-6.554;2023-10-13T00:14:33;2;2;
40371;PMS5003;28564;53.346;-6.554;2023-10-13T00:17:00;2;2;
40371;PMS5003;28564;53.346;-6.554;2023-10-13T00:19:28;1;1;
40371;PMS5003;28564;53.346;-6.554;2023-10-13T00:21:56;2;2;
40371;PMS5003;28564;53.346;-6.554;2023-10-13T00:24:23;2;2;
40371;PMS5003;28564;53.346;-6.554;2023-10-13T00:26:50;3;3;
40371;PMS5003;28564;53.346;-6.554;2023-10-13T00:29:34;3;2;
40371;PMS5003;28564;53.346;-6.554;2023-10-13T00:32:01;5;2;
40371;PMS5003;28564;53.346;-6.554;2023-10-13T00:34:28;1;1;
40371;PMS5003;28564;53.346;-6.554;2023-10-13T00:36:55;2;2;
40371;PMS5003;28564;53.346;-6.554;2023-10-13T00:39:22;2;0;
40371;PMS5003;28564;53.346;-6.554;2023-10-13T00:41:49;3;3;
40371;PMS5003;28564;53.346;-6.554;2023-10-13T00:44:16;2;2;
40371;PMS5003;28564;53.346;-6.554;2023-10-13T00:46:43;2;2;
40371;PMS5003;28564;53.346;-6.554;2023-10-13T00:49:11;1;1;
40371;PMS5003;28564;53.346;-6.554;2023-10-13T00:51:39;3;3;
40371;PMS5003;28564;53.346;-6.554;2023-10-13T00:54:07;3;1;
40371;PMS5003;28564;53.346;-6.554;2023-10-13T00:56:36;2;2;
40371;PMS5003;28564;53.346;-6.554;2023-10-13T00:59:04;1;1;
40371;PMS5003;28564;53.346;-6.554;2023-10-13T01:01:31;2;1;
40371;PMS5003;28564;53.346;-6.554;2023-10-13T01:03:58;2;2;
40371;PMS5003;28564;53.346;-6.554;2023-10-13T01:06:26;3;2;
40371;PMS5003;28564;53.346;-6.554;2023-10-13T01:08:58;4;3;
40371;PMS5003;28564;53.346;-6.554;2023-10-13T01:11:32;3;3;
40371;PMS5003;28564;53.346;-6.554;2023-10-13T01:13:59;5;3;
40371;PMS5003;28564;53.346;-6.554;2023-10-13T01:16:26;1;1;
40371;PMS5003;28564;53.346;-6.554;2023-10-13T01:18:53;3;3;
40371;PMS5003;28564;53.346;-6.554;2023-10-13T01:21:20;3;3;
40371;PMS5003;28564;53.346;-6.554;2023-10-13T01:23:47;3;3;
40371;PMS5003;28564;53.346;-6.554;2023-10-13T01:26:14;4;4;
40371;PMS5003;28564;53.346;-6.554;2023-10-13T01:28:41;5;2;
40371;PMS5003;28564;53.346;-6.554;2023-10-13T01:31:10;2;2;
40371;PMS5003;28564;53.346;-6.554;2023-10-13T01:33:37;4;2;
40371;PMS5003;28564;53.346;-6.554;2023-10-13T01:36:04;2;2;
40371;PMS5003;28564;53.346;-6.554;2023-10-13T01:38:32;4;4;
40371;PMS5003;28564;53.346;-6.554;2023-10-13T01:40:59;2;2;
40371;PMS5003;28564;53.346;-6.554;2023-10-13T01:43:26;4;4;
40371;PMS5003;28564;53.346;-6.554;2023-10-13T01:45:53;3;3;
40371;PMS5003;28564;53.346;-6.554;2023-10-13T01:48:20;2;2;
40371;PMS5003;28564;53.346;-6.554;2023-10-13T01:50:47;1;1;
40371;PMS5003;28564;53.346;-6.554;2023-10-13T01:53:14;3;3;
40371;PMS5003;28564;53.346;-6.554;2023-10-13T01:55:41;3;3;
40371;PMS5003;28564;53.346;-6.554;2023-10-13T01:58:10;3;3;
40371;PMS5003;28564;53.346;-6.554;2023-10-13T02:00:37;4;3;
40371;PMS5003;28564;53.346;-6.554;2023-10-13T02:03:04;3;3;
40371;PMS5003;28564;53.346;-6.554;2023-10-13T02:05:31;3;3;
40371;PMS5003;28564;53.346;-6.554;2023-10-13T02:07:58;3;3;
40371;PMS5003;28564;53.346;-6.554;2023-10-13T02:10:26;6;5;
40371;PMS5003;28564;53.346;-6.554;2023-10-13T02:12:53;2;2;
40371;PMS5003;28564;53.346;-6.554;2023-10-13T02:15:20;5;3;
40371;PMS5003;28564;53.346;-6.554;2023-10-13T02:17:47;7;4;
40371;PMS5003;28564;53.346;-6.554;2023-10-13T02:20:14;4;3;
40371;PMS5003;28564;53.346;-6.554;2023-10-13T02:22:41;5;3;
40371;PMS5003;28564;53.346;-6.554;2023-10-13T02:25:08;5;4;
40371;PMS5003;28564;53.346;-6.554;2023-10-13T02:27:35;5;4;
40371;PMS5003;28564;53.346;-6.554;2023-10-13T02:30:03;3;3;
40371;PMS5003;28564;53.346;-6.554;2023-10-13T02:32:30;2;2;
40371;PMS5003;28564;53.346;-6.554;2023-10-13T02:34:58;2;2;
40371;PMS5003;28564;53.346;-6.554;2023-10-13T02:37:25;4;4;
40371;PMS5003;28564;53.346;-6.554;2023-10-13T02:39:52;5;4;
40371;PMS5003;28564;53.346;-6.554;2023-10-13T02:42:19;3;3;
40371;PMS5003;28564;53.346;-6.554;2023-10-13T02:44:46;3;3;
40371;PMS5003;28564;53.346;-6.554;2023-10-13T02:47:13;7;7;
40371;PMS5003;28564;53.346;-6.554;2023-10-13T02:49:40;6;6;
40371;PMS5003;28564;53.346;-6.554;2023-10-13T02:52:12;4;4;
40371;PMS5003;28564;53.346;-6.554;2023-10-13T02:54:40;4;4;
40371;PMS5003;28564;53.346;-6.554;2023-10-13T02:57:07;4;3;
40371;PMS5003;28564;53.346;-6.554;2023-10-13T02:59:35;4;4;
40371;PMS5003;28564;53.346;-6.554;2023-10-13T03:02:02;7;5;
40371;PMS5003;28564;53.346;-6.554;2023-10-13T03:04:29;3;3;
40371;PMS5003;28564;53.346;-6.554;2023-10-13T03:06:57;3;3;
40371;PMS5003;28564;53.346;-6.554;2023-10-13T03:09:24;2;2;
40371;PMS5003;28564;53.346;-6.554;2023-10-13T03:11:51;4;4;
40371;PMS5003;28564;53.346;-6.554;2023-10-13T03:14:19;5;4;
40371;PMS5003;28564;53.346;-6.554;2023-10-13T03:16:47;3;3;
40371;PMS5003;28564;53.346;-6.554;2023-10-13T03:19:19;5;2;
40371;PMS5003;28564;53.346;-6.554;2023-10-13T03:21:46;2;2;
40371;PMS5003;28564;53.346;-6.554;2023-10-13T03:24:13;3;3;
40371;PMS5003;28564;53.346;-6.554;2023-10-13T03:26:41;3;3;
40371;PMS5003;28564;53.346;-6.554;2023-10-13T03:29:08;3;3;
40371;PMS5003;28564;53.346;-6.554;2023-10-13T03:31:35;3;3;
40371;PMS5003;28564;53.346;-6.554;2023-10-13T03:34:02;4;4;
40371;PMS5003;28564;53.346;-6.554;2023-10-13T03:36:31;7;6;
40371;PMS5003;28564;53.346;-6.554;2023-10-13T03:38:58;8;8;
40371;PMS5003;28564;53.346;-6.554;2023-10-13T03:41:25;9;9;
40371;PMS5003;28564;53.346;-6.554;2023-10-13T03:43:52;12;12;
40371;PMS5003;28564;53.346;-6.554;2023-10-13T03:46:20;9;9;
40371;PMS5003;28564;53.346;-6.554;2023-10-13T03:48:46;6;6;
40371;PMS5003;28564;53.346;-6.554;2023-10-13T03:51:14;11;6;
40371;PMS5003;28564;53.346;-6.554;2023-10-13T03:53:41;9;9;
40371;PMS5003;28564;53.346;-6.554;2023-10-13T03:56:09;10;8;
40371;PMS5003;28564;53.346;-6.554;2023-10-13T03:58:36;9;7;
40371;PMS5003;28564;53.346;-6.554;2023-10-13T04:01:04;8;8;
40371;PMS5003;28564;53.346;-6.554;2023-10-13T04:03:32;10;9;
40371;PMS5003;28564;53.346;-6.554;2023-10-13T04:05:59;12;12;
40371;PMS5003;28564;53.346;-6.554;2023-10-13T04:08:26;12;12;
40371;PMS5003;28564;53.346;-6.554;2023-10-13T04:10:53;11;10;
40371;PMS5003;28564;53.346;-6.554;2023-10-13T04:13:22;7;7;
40371;PMS5003;28564;53.346;-6.554;2023-10-13T04:15:50;12;11;
40371;PMS5003;28564;53.346;-6.554;2023-10-13T04:18:17;9;9;
40371;PMS5003;28564;53.346;-6.554;2023-10-13T04:20:52;9;7;
40371;PMS5003;28564;53.346;-6.554;2023-10-13T04:23:20;8;8;
40371;PMS5003;28564;53.346;-6.554;2023-10-13T04:25:47;8;5;
40371;PMS5003;28564;53.346;-6.554;2023-10-13T04:28:14;5;5;
40371;PMS5003;28564;53.346;-6.554;2023-10-13T04:30:43;4;4;
40371;PMS5003;28564;53.346;-6.554;2023-10-13T04:33:12;4;3;
40371;PMS5003;28564;53.346;-6.554;2023-10-13T04:35:39;4;3;
40371;PMS5003;28564;53.346;-6.554;2023-10-13T04:38:06;2;2;
40371;PMS5003;28564;53.346;-6.554;2023-10-13T04:40:33;1;1;
40371;PMS5003;28564;53.346;-6.554;2023-10-13T04:43:00;1;1;
40371;PMS5003;28564;53.346;-6.554;2023-10-13T04:45:28;0;0;
40371;PMS5003;28564;53.346;-6.554;2023-10-13T04:47:55;1;1;
40371;PMS5003;28564;53.346;-6.554;2023-10-13T04:50:22;2;2;
40371;PMS5003;28564;53.346;-6.554;2023-10-13T04:52:49;0;0;
40371;PMS5003;28564;53.346;-6.554;2023-10-13T04:55:16;1;1;
40371;PMS5003;28564;53.346;-6.554;2023-10-13T04:57:43;0;0;
40371;PMS5003;28564;53.346;-6.554;2023-10-13T05:00:11;2;2;
40371;PMS5003;28564;53.346;-6.554;2023-10-13T05:02:40;1;1;
40371;PMS5003;28564;53.346;-6.554;2023-10-13T05:05:09;1;1;
40371;PMS5003;28564;53.346;-6.554;2023-10-13T05:07:37;2;1;
40371;PMS5003;28564;53.346;-6.554;2023-10-13T05:10:05;0;0;
40371;PMS5003;28564;53.346;-6.554;2023-10-13T05:12:32;1;1;
40371;PMS5003;28564;53.346;-6.554;2023-10-13T05:14:59;2;2;
40371;PMS5003;28564;53.346;-6.554;2023-10-13T05:17:27;4;4;
40371;PMS5003;28564;53.346;-6.554;2023-10-13T05:19:55;6;4;
40371;PMS5003;28564;53.346;-6.554;2023-10-13T05:22:23;5;1;
40371;PMS5003;28564;53.346;-6.554;2023-10-13T05:24:50;0;0;
40371;PMS5003;28564;53.346;-6.554;2023-10-13T05:27:18;0;0;
40371;PMS5003;28564;53.346;-6.554;2023-10-13T05:29:46;2;1;
40371;PMS5003;28564;53.346;-6.554;2023-10-13T05:32:14;2;1;
40371;PMS5003;28564;53.346;-6.554;2023-10-13T05:34:41;2;2;
40371;PMS5003;28564;53.346;-6.554;2023-10-13T05:37:08;0;0;
40371;PMS5003;28564;53.346;-6.554;2023-10-13T05:39:36;1;1;
40371;PMS5003;28564;53.346;-6.554;2023-10-13T05:42:03;2;1;
40371;PMS5003;28564;53.346;-6.554;2023-10-13T05:44:30;2;1;
40371;PMS5003;28564;53.346;-6.554;2023-10-13T05:46:57;0;0;
40371;PMS5003;28564;53.346;-6.554;2023-10-13T05:49:24;1;1;
40371;PMS5003;28564;53.346;-6.554;2023-10-13T05:51:52;2;0;
40371;PMS5003;28564;53.346;-6.554;2023-10-13T05:54:19;0;0;
40371;PMS5003;28564;53.346;-6.554;2023-10-13T05:56:46;1;1;
40371;PMS5003;28564;53.346;-6.554;2023-10-13T05:59:15;3;1;
40371;PMS5003;28564;53.346;-6.554;2023-10-13T06:01:42;1;1;
40371;PMS5003;28564;53.346;-6.554;2023-10-13T06:04:09;2;2;
40371;PMS5003;28564;53.346;-6.554;2023-10-13T06:06:37;5;5;
40371;PMS5003;28564;53.346;-6.554;2023-10-13T06:09:04;1;1;
40371;PMS5003;28564;53.346;-6.554;2023-10-13T06:11:31;1;1;
40371;PMS5003;28564;53.346;-6.554;2023-10-13T06:13:59;1;0;
40371;PMS5003;28564;53.346;-6.554;2023-10-13T06:16:26;0;0;
40371;PMS5003;28564;53.346;-6.554;2023-10-13T06:18:53;0;0;
40371;PMS5003;28564;53.346;-6.554;2023-10-13T06:21:20;2;1;
40371;PMS5003;28564;53.346;-6.554;2023-10-13T06:23:48;1;1;
40371;PMS5003;28564;53.346;-6.554;2023-10-13T06:26:15;1;1;
40371;PMS5003;28564;53.346;-6.554;2023-10-13T06:28:42;0;0;
40371;PMS5003;28564;53.346;-6.554;2023-10-13T06:31:10;0;0;
40371;PMS5003;28564;53.346;-6.554;2023-10-13T06:33:38;0;0;
40371;PMS5003;28564;53.346;-6.554;2023-10-13T06:36:05;0;0;
40371;PMS5003;28564;53.346;-6.554;2023-10-13T06:38:32;1;1;
40371;PMS5003;28564;53.346;-6.554;2023-10-13T06:40:59;2;2;
40371;PMS5003;28564;53.346;-6.554;2023-10-13T06:43:26;2;2;
40371;PMS5003;28564;53.346;-6.554;2023-10-13T06:45:53;1;1;
40371;PMS5003;28564;53.346;-6.554;2023-10-13T06:48:21;1;1;
40371;PMS5003;28564;53.346;-6.554;2023-10-13T06:50:48;3;1;
40371;PMS5003;28564;53.346;-6.554;2023-10-13T06:53:15;1;1;
40371;PMS5003;28564;53.346;-6.554;2023-10-13T06:55:42;2;0;
40371;PMS5003;28564;53.346;-6.554;2023-10-13T06:58:09;2;0;
40371;PMS5003;28564;53.346;-6.554;2023-10-13T07:00:36;0;0;
40371;PMS5003;28564;53.346;-6.554;2023-10-13T07:03:04;0;0;
40371;PMS5003;28564;53.346;-6.554;2023-10-13T07:05:35;1;1;
40371;PMS5003;28564;53.346;-6.554;2023-10-13T07:08:04;1;1;
40371;PMS5003;28564;53.346;-6.554;2023-10-13T07:10:31;1;1;
40371;PMS5003;28564;53.346;-6.554;2023-10-13T07:12:58;1;1;
40371;PMS5003;28564;53.346;-6.554;2023-10-13T07:15:25;1;1;
40371;PMS5003;28564;53.346;-6.554;2023-10-13T07:17:52;1;1;
40371;PMS5003;28564;53.346;-6.554;2023-10-13T07:20:20;3;2;
40371;PMS5003;28564;53.346;-6.554;2023-10-13T07:22:48;1;1;
40371;PMS5003;28564;53.346;-6.554;2023-10-13T07:25:15;3;1;
40371;PMS5003;28564;53.346;-6.554;2023-10-13T07:27:42;1;1;
40371;PMS5003;28564;53.346;-6.554;2023-10-13T07:30:10;3;1;
40371;PMS5003;28564;53.346;-6.554;2023-10-13T07:32:37;1;1;
40371;PMS5003;28564;53.346;-6.554;2023-10-13T07:35:05;1;1;
40371;PMS5003;28564;53.346;-6.554;2023-10-13T07:37:32;2;0;
40371;PMS5003;28564;53.346;-6.554;2023-10-13T07:40:01;1;1;
40371;PMS5003;28564;53.346;-6.554;2023-10-13T07:42:35;3;2;
40371;PMS5003;28564;53.346;-6.554;2023-10-13T07:45:03;2;2;
40371;PMS5003;28564;53.346;-6.554;2023-10-13T07:47:31;1;1;
40371;PMS5003;28564;53.346;-6.554;2023-10-13T07:49:58;2;0;
40371;PMS5003;28564;53.346;-6.554;2023-10-13T07:52:25;3;1;
40371;PMS5003;28564;53.346;-6.554;2023-10-13T07:54:52;1;1;
40371;PMS5003;28564;53.346;-6.554;2023-10-13T07:57:19;2;2;
40371;PMS5003;28564;53.346;-6.554;2023-10-13T07:59:46;2;1;
40371;PMS5003;28564;53.346;-6.554;2023-10-13T08:02:13;2;1;
40371;PMS5003;28564;53.346;-6.554;2023-10-13T08:04:41;4;3;
40371;PMS5003;28564;53.346;-6.554;2023-10-13T08:07:08;2;2;
40371;PMS5003;28564;53.346;-6.554;2023-10-13T08:09:35;1;1;
40371;PMS5003;28564;53.346;-6.554;2023-10-13T08:12:02;2;2;
40371;PMS5003;28564;53.346;-6.554;2023-10-13T08:14:29;7;4;
40371;PMS5003;28564;53.346;-6.554;2023-10-13T08:16:57;2;2;
40371;PMS5003;28564;53.346;-6.554;2023-10-13T08:19:25;1;1;
40371;PMS5003;28564;53.346;-6.554;2023-10-13T08:21:54;1;1;
40371;PMS5003;28564;53.346;-6.554;2023-10-13T08:24:22;1;1;
40371;PMS5003;28564;53.346;-6.554;2023-10-13T08:26:49;1;1;
40371;PMS5003;28564;53.346;-6.554;2023-10-13T08:29:16;2;2;
40371;PMS5003;28564;53.346;-6.554;2023-10-13T08:31:43;1;1;
40371;PMS5003;28564;53.346;-6.554;2023-10-13T08:34:11;1;1;
40371;PMS5003;28564;53.346;-6.554;2023-10-13T08:36:38;1;1;
40371;PMS5003;28564;53.346;-6.554;2023-10-13T08:39:05;1;1;
40371;PMS5003;28564;53.346;-6.554;2023-10-13T08:41:32;3;1;
40371;PMS5003;28564;53.346;-6.554;2023-10-13T08:44:02;2;2;
40371;PMS5003;28564;53.346;-6.554;2023-10-13T08:46:31;1;1;
40371;PMS5003;28564;53.346;-6.554;2023-10-13T08:48:59;3;2;
40371;PMS5003;28564;53.346;-6.554;2023-10-13T08:51:27;4;2;
40371;PMS5003;28564;53.346;-6.554;2023-10-13T08:53:54;2;2;
40371;PMS5003;28564;53.346;-6.554;2023-10-13T08:56:23;2;2;
40371;PMS5003;28564;53.346;-6.554;2023-10-13T08:58:50;2;2;
40371;PMS5003;28564;53.346;-6.554;2023-10-13T09:03:54;4;2;
40371;PMS5003;28564;53.346;-6.554;2023-10-13T09:06:23;4;1;
40371;PMS5003;28564;53.346;-6.554;2023-10-13T09:08:50;2;2;
40371;PMS5003;28564;53.346;-6.554;2023-10-13T09:11:18;3;2;
40371;PMS5003;28564;53.346;-6.554;2023-10-13T09:13:45;1;1;
40371;PMS5003;28564;53.346;-6.554;2023-10-13T09:16:12;2;2;
40371;PMS5003;28564;53.346;-6.554;2023-10-13T09:18:40;3;2;
40371;PMS5003;28564;53.346;-6.554;2023-10-13T09:21:07;4;2;
40371;PMS5003;28564;53.346;-6.554;2023-10-13T09:23:34;4;3;
40371;PMS5003;28564;53.346;-6.554;2023-10-13T09:26:12;3;2;
40371;PMS5003;28564;53.346;-6.554;2023-10-13T09:28:39;6;3;
40371;PMS5003;28564;53.346;-6.554;2023-10-13T09:31:06;2;2;
40371;PMS5003;28564;53.346;-6.554;2023-10-13T09:33:33;2;2;
40371;PMS5003;28564;53.346;-6.554;2023-10-13T09:36:03;1;1;
40371;PMS5003;28564;53.346;-6.554;2023-10-13T09:38:32;3;3;
40371;PMS5003;28564;53.346;-6.554;2023-10-13T09:41:00;2;2;
40371;PMS5003;28564;53.346;-6.554;2023-10-13T09:43:31;3;2;
40371;PMS5003;28564;53.346;-6.554;2023-10-13T09:45:59;3;3;
40371;PMS5003;28564;53.346;-6.554;2023-10-13T09:48:31;4;3;
40371;PMS5003;28564;53.346;-6.554;2023-10-13T09:51:00;2;2;
40371;PMS5003;28564;53.346;-6.554;2023-10-13T09:53:29;4;2;
40371;PMS5003;28564;53.346;-6.554;2023-10-13T09:56:00;1;1;
40371;PMS5003;28564;53.346;-6.554;2023-10-13T09:58:33;3;3;
40371;PMS5003;28564;53.346;-6.554;2023-10-13T10:01:02;1;1;
40371;PMS5003;28564;53.346;-6.554;2023-10-13T10:03:43;6;3;
40371;PMS5003;28564;53.346;-6.554;2023-10-13T10:06:11;2;2;
40371;PMS5003;28564;53.346;-6.554;2023-10-13T10:08:48;2;1;
40371;PMS5003;28564;53.346;-6.554;2023-10-13T10:11:28;2;2;
40371;PMS5003;28564;53.346;-6.554;2023-10-13T10:14:42;5;2;
40371;PMS5003;28564;53.346;-6.554;2023-10-13T10:17:26;3;3;
40371;PMS5003;28564;53.346;-6.554;2023-10-13T10:19:55;4;4;
40371;PMS5003;28564;53.346;-6.554;2023-10-13T10:22:25;2;2;
40371;PMS5003;28564;53.346;-6.554;2023-10-13T10:24:55;3;1;
40371;PMS5003;28564;53.346;-6.554;2023-10-13T10:27:24;4;2;
40371;PMS5003;28564;53.346;-6.554;2023-10-13T10:29:54;2;2;
40371;PMS5003;28564;53.346;-6.554;2023-10-13T10:32:21;4;1;
40371;PMS5003;28564;53.346;-6.554;2023-10-13T10:35:02;4;3;
40371;PMS5003;28564;53.346;-6.554;2023-10-13T10:37:31;1;1;
40371;PMS5003;28564;53.346;-6.554;2023-10-13T10:40:00;2;2;
40371;PMS5003;28564;53.346;-6.554;2023-10-13T10:42:27;2;2;
40371;PMS5003;28564;53.346;-6.554;2023-10-13T10:44:55;5;2;
40371;PMS5003;28564;53.346;-6.554;2023-10-13T10:47:22;1;1;
40371;PMS5003;28564;53.346;-6.554;2023-10-13T10:49:50;2;2;
40371;PMS5003;28564;53.346;-6.554;2023-10-13T10:52:17;5;2;
40371;PMS5003;28564;53.346;-6.554;2023-10-13T10:54:45;3;3;
40371;PMS5003;28564;53.346;-6.554;2023-10-13T10:57:12;3;2;
40371;PMS5003;28564;53.346;-6.554;2023-10-13T10:59:41;4;2;
40371;PMS5003;28564;53.346;-6.554;2023-10-13T11:02:13;2;2;
40371;PMS5003;28564;53.346;-6.554;2023-10-13T11:04:40;2;2;
40371;PMS5003;28564;53.346;-6.554;2023-10-13T11:07:08;3;2;
40371;PMS5003;28564;53.346;-6.554;2023-10-13T11:09:36;3;3;
40371;PMS5003;28564;53.346;-6.554;2023-10-13T11:12:12;6;3;
40371;PMS5003;28564;53.346;-6.554;2023-10-13T11:14:40;5;3;
40371;PMS5003;28564;53.346;-6.554;2023-10-13T11:17:09;2;2;
40371;PMS5003;28564;53.346;-6.554;2023-10-13T11:19:36;3;1;
40371;PMS5003;28564;53.346;-6.554;2023-10-13T11:22:12;6;2;
40371;PMS5003;28564;53.346;-6.554;2023-10-13T11:24:41;8;2;
40371;PMS5003;28564;53.346;-6.554;2023-10-13T11:27:13;1;1;
40371;PMS5003;28564;53.346;-6.554;2023-10-13T11:29:41;2;2;
40371;PMS5003;28564;53.346;-6.554;2023-10-13T11:32:08;4;2;
40371;PMS5003;28564;53.346;-6.554;2023-10-13T11:34:35;4;1;
40371;PMS5003;28564;53.346;-6.554;2023-10-13T11:37:02;3;2;
40371;PMS5003;28564;53.346;-6.554;2023-10-13T11:39:29;3;1;
40371;PMS5003;28564;53.346;-6.554;2023-10-13T11:41:56;4;2;
40371;PMS5003;28564;53.346;-6.554;2023-10-13T11:44:24;3;1;
40371;PMS5003;28564;53.346;-6.554;2023-10-13T11:46:51;4;2;
40371;PMS5003;28564;53.346;-6.554;2023-10-13T11:49:18;2;1;
40371;PMS5003;28564;53.346;-6.554;2023-10-13T11:51:45;1;1;
40371;PMS5003;28564;53.346;-6.554;2023-10-13T11:54:15;1;1;
40371;PMS5003;28564;53.346;-6.554;2023-10-13T11:56:49;0;0;
40371;PMS5003;28564;53.346;-6.554;2023-10-13T11:59:16;2;2;
40371;PMS5003;28564;53.346;-6.554;2023-10-13T12:01:44;3;1;
40371;PMS5003;28564;53.346;-6.554;2023-10-13T12:04:12;1;0;
40371;PMS5003;28564;53.346;-6.554;2023-10-13T12:06:38;5;2;
40371;PMS5003;28564;53.346;-6.554;2023-10-13T12:09:06;3;1;
40371;PMS5003;28564;53.346;-6.554;2023-10-13T12:11:34;2;2;
40371;PMS5003;28564;53.346;-6.554;2023-10-13T12:14:01;2;2;
40371;PMS5003;28564;53.346;-6.554;2023-10-13T12:16:29;2;0;
40371;PMS5003;28564;53.346;-6.554;2023-10-13T12:18:56;1;1;
40371;PMS5003;28564;53.346;-6.554;2023-10-13T12:21:23;0;0;
40371;PMS5003;28564;53.346;-6.554;2023-10-13T12:23:50;3;2;
40371;PMS5003;28564;53.346;-6.554;2023-10-13T12:26:17;2;0;
40371;PMS5003;28564;53.346;-6.554;2023-10-13T12:28:45;1;0;
40371;PMS5003;28564;53.346;-6.554;2023-10-13T12:31:11;0;0;
40371;PMS5003;28564;53.346;-6.554;2023-10-13T12:33:38;1;0;
40371;PMS5003;28564;53.346;-6.554;2023-10-13T12:36:05;3;1;
40371;PMS5003;28564;53.346;-6.554;2023-10-13T12:38:33;2;1;
40371;PMS5003;28564;53.346;-6.554;2023-10-13T12:41:01;1;1;
40371;PMS5003;28564;53.346;-6.554;2023-10-13T12:43:32;2;1;
40371;PMS5003;28564;53.346;-6.554;2023-10-13T12:45:59;3;2;
40371;PMS5003;28564;53.346;-6.554;2023-10-13T12:48:26;1;1;
40371;PMS5003;28564;53.346;-6.554;2023-10-13T12:50:54;2;2;
40371;PMS5003;28564;53.346;-6.554;2023-10-13T12:53:21;1;1;
40371;PMS5003;28564;53.346;-6.554;2023-10-13T12:55:48;0;0;
40371;PMS5003;28564;53.346;-6.554;2023-10-13T12:58:15;1;0;
40371;PMS5003;28564;53.346;-6.554;2023-10-13T13:00:43;2;2;
40371;PMS5003;28564;53.346;-6.554;2023-10-13T13:03:10;3;1;
40371;PMS5003;28564;53.346;-6.554;2023-10-13T13:05:37;0;0;
40371;PMS5003;28564;53.346;-6.554;2023-10-13T13:08:04;0;0;
40371;PMS5003;28564;53.346;-6.554;2023-10-13T13:10:32;0;0;
40371;PMS5003;28564;53.346;-6.554;2023-10-13T13:12:59;0;0;
40371;PMS5003;28564;53.346;-6.554;2023-10-13T13:15:26;1;0;
40371;PMS5003;28564;53.346;-6.554;2023-10-13T13:17:53;1;0;
40371;PMS5003;28564;53.346;-6.554;2023-10-13T13:20:20;0;0;
40371;PMS5003;28564;53.346;-6.554;2023-10-13T13:22:47;1;1;
40371;PMS5003;28564;53.346;-6.554;2023-10-13T13:25:14;3;1;
40371;PMS5003;28564;53.346;-6.554;2023-10-13T13:27:41;2;1;
40371;PMS5003;28564;53.346;-6.554;2023-10-13T13:30:08;2;2;
40371;PMS5003;28564;53.346;-6.554;2023-10-13T13:32:37;3;2;
40371;PMS5003;28564;53.346;-6.554;2023-10-13T13:35:05;4;0;
40371;PMS5003;28564;53.346;-6.554;2023-10-13T13:37:33;0;0;
40371;PMS5003;28564;53.346;-6.554;2023-10-13T13:40:03;0;0;
40371;PMS5003;28564;53.346;-6.554;2023-10-13T13:42:30;1;1;
40371;PMS5003;28564;53.346;-6.554;2023-10-13T13:44:57;1;1;
40371;PMS5003;28564;53.346;-6.554;2023-10-13T13:47:24;5;1;
40371;PMS5003;28564;53.346;-6.554;2023-10-13T13:49:51;1;1;
40371;PMS5003;28564;53.346;-6.554;2023-10-13T13:52:22;4;2;
40371;PMS5003;28564;53.346;-6.554;2023-10-13T13:54:49;3;1;
40371;PMS5003;28564;53.346;-6.554;2023-10-13T13:57:16;3;1;
40371;PMS5003;28564;53.346;-6.554;2023-10-13T13:59:43;2;0;
40371;PMS5003;28564;53.346;-6.554;2023-10-13T14:02:10;2;1;
40371;PMS5003;28564;53.346;-6.554;2023-10-13T14:04:37;2;2;
40371;PMS5003;28564;53.346;-6.554;2023-10-13T14:07:04;3;0;
40371;PMS5003;28564;53.346;-6.554;2023-10-13T14:09:31;2;1;
40371;PMS5003;28564;53.346;-6.554;2023-10-13T14:11:59;3;1;
40371;PMS5003;28564;53.346;-6.554;2023-10-13T14:14:26;4;1;
40371;PMS5003;28564;53.346;-6.554;2023-10-13T14:16:54;2;0;
40371;PMS5003;28564;53.346;-6.554;2023-10-13T14:19:22;2;0;
40371;PMS5003;28564;53.346;-6.554;2023-10-13T14:21:49;1;1;
40371;PMS5003;28564;53.346;-6.554;2023-10-13T14:24:16;2;0;
40371;PMS5003;28564;53.346;-6.554;2023-10-13T14:26:43;1;0;
40371;PMS5003;28564;53.346;-6.554;2023-10-13T14:29:11;1;0;
40371;PMS5003;28564;53.346;-6.554;2023-10-13T14:31:39;2;1;
40371;PMS5003;28564;53.346;-6.554;2023-10-13T14:34:06;3;2;
40371;PMS5003;28564;53.346;-6.554;2023-10-13T14:36:34;1;1;
40371;PMS5003;28564;53.346;-6.554;2023-10-13T14:39:02;2;0;
40371;PMS5003;28564;53.346;-6.554;2023-10-13T14:41:31;4;1;
40371;PMS5003;28564;53.346;-6.554;2023-10-13T14:43:59;0;0;
40371;PMS5003;28564;53.346;-6.554;2023-10-13T14:46:26;1;1;
40371;PMS5003;28564;53.346;-6.554;2023-10-13T14:48:53;0;0;
40371;PMS5003;28564;53.346;-6.554;2023-10-13T14:51:20;3;3;
40371;PMS5003;28564;53.346;-6.554;2023-10-13T14:53:48;1;1;
40371;PMS5003;28564;53.346;-6.554;2023-10-13T14:56:16;1;1;
40371;PMS5003;28564;53.346;-6.554;2023-10-13T14:58:43;3;1;
40371;PMS5003;28564;53.346;-6.554;2023-10-13T15:01:11;1;1;
40371;PMS5003;28564;53.346;-6.554;2023-10-13T15:03:39;1;1;
40371;PMS5003;28564;53.346;-6.554;2023-10-13T15:06:06;3;2;
40371;PMS5003;28564;53.346;-6.554;2023-10-13T15:08:32;1;1;
40371;PMS5003;28564;53.346;-6.554;2023-10-13T15:11:07;2;1;
40371;PMS5003;28564;53.346;-6.554;2023-10-13T15:13:34;0;0;
40371;PMS5003;28564;53.346;-6.554;2023-10-13T15:16:01;1;1;
40371;PMS5003;28564;53.346;-6.554;2023-10-13T15:18:38;1;1;
40371;PMS5003;28564;53.346;-6.554;2023-10-13T15:21:07;2;2;
40371;PMS5003;28564;53.346;-6.554;2023-10-13T15:23:34;4;1;
40371;PMS5003;28564;53.346;-6.554;2023-10-13T15:26:03;1;0;
40371;PMS5003;28564;53.346;-6.554;2023-10-13T15:28:30;2;0;
40371;PMS5003;28564;53.346;-6.554;2023-10-13T15:30:58;1;1;
40371;PMS5003;28564;53.346;-6.554;2023-10-13T15:33:25;1;1;
40371;PMS5003;28564;53.346;-6.554;2023-10-13T15:35:52;1;1;
40371;PMS5003;28564;53.346;-6.554;2023-10-13T15:38:19;1;1;
40371;PMS5003;28564;53.346;-6.554;2023-10-13T15:40:46;2;2;
40371;PMS5003;28564;53.346;-6.554;2023-10-13T15:43:13;2;2;
40371;PMS5003;28564;53.346;-6.554;2023-10-13T15:45:40;2;2;
40371;PMS5003;28564;53.346;-6.554;2023-10-13T15:48:07;1;1;
40371;PMS5003;28564;53.346;-6.554;2023-10-13T15:50:35;6;0;
40371;PMS5003;28564;53.346;-6.554;2023-10-13T15:53:03;0;0;
40371;PMS5003;28564;53.346;-6.554;2023-10-13T15:55:30;4;2;
40371;PMS5003;28564;53.346;-6.554;2023-10-13T15:58:02;1;1;
40371;PMS5003;28564;53.346;-6.554;2023-10-13T16:00:30;0;0;
40371;PMS5003;28564;53.346;-6.554;2023-10-13T16:02:57;1;0;
40371;PMS5003;28564;53.346;-6.554;2023-10-13T16:05:28;0;0;
40371;PMS5003;28564;53.346;-6.554;2023-10-13T16:07:55;0;0;
40371;PMS5003;28564;53.346;-6.554;2023-10-13T16:10:23;0;0;
40371;PMS5003;28564;53.346;-6.554;2023-10-13T16:12:50;0;0;
40371;PMS5003;28564;53.346;-6.554;2023-10-13T16:15:17;1;1;
40371;PMS5003;28564;53.346;-6.554;2023-10-13T16:17:44;0;0;
40371;PMS5003;28564;53.346;-6.554;2023-10-13T16:20:12;3;1;
40371;PMS5003;28564;53.346;-6.554;2023-10-13T16:22:39;0;0;
40371;PMS5003;28564;53.346;-6.554;2023-10-13T16:25:06;1;1;
40371;PMS5003;28564;53.346;-6.554;2023-10-13T16:27:34;3;0;
40371;PMS5003;28564;53.346;-6.554;2023-10-13T16:30:01;0;0;
40371;PMS5003;28564;53.346;-6.554;2023-10-13T16:32:28;2;0;
40371;PMS5003;28564;53.346;-6.554;2023-10-13T16:34:56;0;0;
40371;PMS5003;28564;53.346;-6.554;2023-10-13T16:37:23;3;1;
40371;PMS5003;28564;53.346;-6.554;2023-10-13T16:39:50;1;0;
40371;PMS5003;28564;53.346;-6.554;2023-10-13T16:42:17;0;0;